sensor_id;sensor_type;location;lat;lon;timestamp;pressure;altitude;pressure_sealevel;temperature;humidity
11440;BME280;5776;51.814;4.510;2022-12-07T00:01:37;101955.94;;;6.27;100.00
11440;BME280;5776;51.814;4.510;2022-12-07T00:04:05;101944.06;;;6.28;100.00
11440;BME280;5776;51.814;4.510;2022-12-07T00:06:32;101938.66;;;6.28;100.00
11440;BME280;5776;51.814;4.510;2022-12-07T00:08:58;101937.03;;;6.27;100.00
11440;BME280;5776;51.814;4.510;2022-12-07T00:11:25;101937.03;;;6.27;100.00
11440;BME280;5776;51.814;4.510;2022-12-07T00:13:52;101946.16;;;6.26;100.00
11440;BME280;5776;51.814;4.510;2022-12-07T00:16:20;101943.72;;;6.25;100.00
11440;BME280;5776;51.814;4.510;2022-12-07T00:18:47;101951.44;;;6.21;100.00
11440;BME280;5776;51.814;4.510;2022-12-07T00:21:21;101946.28;;;6.20;100.00
11440;BME280;5776;51.814;4.510;2022-12-07T00:23:48;101938.41;;;6.18;100.00
11440;BME280;5776;51.814;4.510;2022-12-07T00:26:17;101940.66;;;6.21;100.00
11440;BME280;5776;51.814;4.510;2022-12-07T00:28:51;101930.56;;;6.28;100.00
11440;BME280;5776;51.814;4.510;2022-12-07T00:31:19;101934.09;;;6.29;100.00
11440;BME280;5776;51.814;4.510;2022-12-07T00:33:46;101929.53;;;6.30;100.00
11440;BME280;5776;51.814;4.510;2022-12-07T00:36:14;101931.66;;;6.27;100.00
11440;BME280;5776;51.814;4.510;2022-12-07T00:38:41;101920.47;;;6.24;100.00
11440;BME280;5776;51.814;4.510;2022-12-07T00:41:14;101926.13;;;6.22;100.00
11440;BME280;5776;51.814;4.510;2022-12-07T00:43:42;101920.34;;;6.19;100.00
11440;BME280;5776;51.814;4.510;2022-12-07T00:46:08;101924.34;;;6.16;100.00
11440;BME280;5776;51.814;4.510;2022-12-07T00:48:34;101921.88;;;6.15;100.00
11440;BME280;5776;51.814;4.510;2022-12-07T00:51:00;101916.72;;;6.13;100.00
11440;BME280;5776;51.814;4.510;2022-12-07T00:53:27;101919.88;;;6.10;100.00
11440;BME280;5776;51.814;4.510;2022-12-07T00:55:52;101925.75;;;6.07;100.00
11440;BME280;5776;51.814;4.510;2022-12-07T00:58:18;101926.19;;;6.04;100.00
11440;BME280;5776;51.814;4.510;2022-12-07T01:00:45;101931.00;;;6.02;100.00
11440;BME280;5776;51.814;4.510;2022-12-07T01:03:13;101923.13;;;6.00;100.00
11440;BME280;5776;51.814;4.510;2022-12-07T01:05:39;101920.91;;;5.97;100.00
11440;BME280;5776;51.814;4.510;2022-12-07T01:08:05;101923.81;;;5.96;100.00
11440;BME280;5776;51.814;4.510;2022-12-07T01:10:32;101933.38;;;5.92;100.00
11440;BME280;5776;51.814;4.510;2022-12-07T01:12:58;101923.06;;;5.89;100.00
11440;BME280;5776;51.814;4.510;2022-12-07T01:15:25;101924.13;;;5.88;100.00
11440;BME280;5776;51.814;4.510;2022-12-07T01:17:51;101920.84;;;5.85;100.00
11440;BME280;5776;51.814;4.510;2022-12-07T01:20:17;101928.72;;;5.87;100.00
11440;BME280;5776;51.814;4.510;2022-12-07T01:22:43;101921.31;;;5.82;100.00
11440;BME280;5776;51.814;4.510;2022-12-07T01:25:11;101918.00;;;5.80;100.00
11440;BME280;5776;51.814;4.510;2022-12-07T01:27:37;101925.03;;;5.81;100.00
11440;BME280;5776;51.814;4.510;2022-12-07T01:30:05;101924.00;;;5.82;100.00
11440;BME280;5776;51.814;4.510;2022-12-07T01:32:32;101922.34;;;5.81;100.00
11440;BME280;5776;51.814;4.510;2022-12-07T01:34:58;101924.22;;;5.81;100.00
11440;BME280;5776;51.814;4.510;2022-12-07T01:37:24;101921.53;;;5.81;100.00
11440;BME280;5776;51.814;4.510;2022-12-07T01:39:53;101932.41;;;5.74;100.00
11440;BME280;5776;51.814;4.510;2022-12-07T01:42:19;101932.41;;;5.74;100.00
11440;BME280;5776;51.814;4.510;2022-12-07T01:47:53;101917.88;;;5.75;100.00
11440;BME280;5776;51.814;4.510;2022-12-07T01:50:25;101927.84;;;5.75;100.00
11440;BME280;5776;51.814;4.510;2022-12-07T01:52:54;101925.38;;;5.73;100.00
11440;BME280;5776;51.814;4.510;2022-12-07T01:55:22;101928.06;;;5.73;100.00
11440;BME280;5776;51.814;4.510;2022-12-07T01:57:51;101920.44;;;5.70;100.00
11440;BME280;5776;51.814;4.510;2022-12-07T02:00:18;101917.13;;;5.68;100.00
11440;BME280;5776;51.814;4.510;2022-12-07T02:02:48;101919.25;;;5.66;100.00
11440;BME280;5776;51.814;4.510;2022-12-07T02:05:17;101912.69;;;5.62;100.00
11440;BME280;5776;51.814;4.510;2022-12-07T02:07:44;101920.16;;;5.60;100.00
11440;BME280;5776;51.814;4.510;2022-12-07T02:12:40;101923.88;;;5.59;100.00
11440;BME280;5776;51.814;4.510;2022-12-07T02:15:06;101930.69;;;5.61;100.00
11440;BME280;5776;51.814;4.510;2022-12-07T02:17:40;101939.16;;;5.65;100.00
11440;BME280;5776;51.814;4.510;2022-12-07T02:25:21;101918.88;;;5.62;100.00
11440;BME280;5776;51.814;4.510;2022-12-07T02:28:03;101916.41;;;5.61;100.00
11440;BME280;5776;51.814;4.510;2022-12-07T02:30:32;101917.69;;;5.58;100.00
11440;BME280;5776;51.814;4.510;2022-12-07T02:33:04;101909.25;;;5.55;100.00
11440;BME280;5776;51.814;4.510;2022-12-07T02:38:26;101895.78;;;5.55;100.00
11440;BME280;5776;51.814;4.510;2022-12-07T02:41:00;101898.47;;;5.55;100.00
11440;BME280;5776;51.814;4.510;2022-12-07T02:43:33;101908.19;;;5.56;100.00
11440;BME280;5776;51.814;4.510;2022-12-07T02:46:14;101903.84;;;5.55;100.00
11440;BME280;5776;51.814;4.510;2022-12-07T02:48:41;101900.69;;;5.58;100.00
11440;BME280;5776;51.814;4.510;2022-12-07T02:51:08;101903.63;;;5.56;100.00
11440;BME280;5776;51.814;4.510;2022-12-07T02:53:38;101897.41;;;5.56;100.00
11440;BME280;5776;51.814;4.510;2022-12-07T03:04:30;101906.91;;;5.58;100.00
11440;BME280;5776;51.814;4.510;2022-12-07T03:07:07;101911.34;;;5.53;100.00
11440;BME280;5776;51.814;4.510;2022-12-07T03:09:43;101907.44;;;5.49;100.00
11440;BME280;5776;51.814;4.510;2022-12-07T03:12:20;101911.41;;;5.46;100.00
11440;BME280;5776;51.814;4.510;2022-12-07T03:15:00;101903.78;;;5.43;100.00
11440;BME280;5776;51.814;4.510;2022-12-07T03:17:31;101912.09;;;5.41;100.00
11440;BME280;5776;51.814;4.510;2022-12-07T03:20:04;101905.06;;;5.40;100.00
11440;BME280;5776;51.814;4.510;2022-12-07T03:22:32;101903.44;;;5.39;100.00
11440;BME280;5776;51.814;4.510;2022-12-07T03:25:04;101912.34;;;5.40;100.00
11440;BME280;5776;51.814;4.510;2022-12-07T03:27:52;101916.31;;;5.37;100.00
11440;BME280;5776;51.814;4.510;2022-12-07T03:30:49;101910.94;;;5.37;100.00
11440;BME280;5776;51.814;4.510;2022-12-07T03:33:22;101906.00;;;5.34;100.00
11440;BME280;5776;51.814;4.510;2022-12-07T03:36:00;101905.16;;;5.34;100.00
11440;BME280;5776;51.814;4.510;2022-12-07T03:38:33;101896.50;;;5.32;100.00
11440;BME280;5776;51.814;4.510;2022-12-07T03:41:09;101895.66;;;5.31;100.00
11440;BME280;5776;51.814;4.510;2022-12-07T03:43:37;101898.00;;;5.28;100.00
11440;BME280;5776;51.814;4.510;2022-12-07T03:49:22;101890.72;;;5.28;100.00
11440;BME280;5776;51.814;4.510;2022-12-07T03:52:18;101889.09;;;5.27;100.00
11440;BME280;5776;51.814;4.510;2022-12-07T03:54:55;101894.84;;;5.31;100.00
11440;BME280;5776;51.814;4.510;2022-12-07T03:57:24;101891.31;;;5.30;100.00
11440;BME280;5776;51.814;4.510;2022-12-07T03:59:54;101887.34;;;5.33;100.00
11440;BME280;5776;51.814;4.510;2022-12-07T04:02:20;101891.69;;;5.34;100.00
11440;BME280;5776;51.814;4.510;2022-12-07T04:04:46;101893.09;;;5.36;100.00
11440;BME280;5776;51.814;4.510;2022-12-07T04:07:12;101902.25;;;5.35;100.00
11440;BME280;5776;51.814;4.510;2022-12-07T04:09:38;101902.84;;;5.37;100.00
11440;BME280;5776;51.814;4.510;2022-12-07T04:12:04;101896.63;;;5.37;100.00
11440;BME280;5776;51.814;4.510;2022-12-07T04:14:30;101893.09;;;5.36;100.00
11440;BME280;5776;51.814;4.510;2022-12-07T04:16:57;101886.06;;;5.35;100.00
11440;BME280;5776;51.814;4.510;2022-12-07T04:19:29;101886.91;;;5.36;100.00
11440;BME280;5776;51.814;4.510;2022-12-07T04:21:57;101877.78;;;5.37;100.00
11440;BME280;5776;51.814;4.510;2022-12-07T04:24:24;101889.38;;;5.37;100.00
11440;BME280;5776;51.814;4.510;2022-12-07T04:26:51;101878.00;;;5.35;100.00
11440;BME280;5776;51.814;4.510;2022-12-07T04:29:17;101876.13;;;5.36;100.00
11440;BME280;5776;51.814;4.510;2022-12-07T04:31:44;101873.28;;;5.31;100.00
11440;BME280;5776;51.814;4.510;2022-12-07T04:34:11;101875.63;;;5.27;100.00
11440;BME280;5776;51.814;4.510;2022-12-07T04:36:38;101869.03;;;5.23;100.00
11440;BME280;5776;51.814;4.510;2022-12-07T04:39:06;101869.50;;;5.20;100.00
11440;BME280;5776;51.814;4.510;2022-12-07T04:41:32;101871.81;;;5.16;100.00
11440;BME280;5776;51.814;4.510;2022-12-07T04:44:00;101871.81;;;5.16;100.00
11440;BME280;5776;51.814;4.510;2022-12-07T04:46:28;101863.97;;;5.15;100.00
11440;BME280;5776;51.814;4.510;2022-12-07T04:48:55;101861.13;;;5.10;100.00
11440;BME280;5776;51.814;4.510;2022-12-07T04:51:26;101867.34;;;5.10;100.00
11440;BME280;5776;51.814;4.510;2022-12-07T04:53:52;101863.22;;;5.08;100.00
11440;BME280;5776;51.814;4.510;2022-12-07T04:56:19;101858.06;;;5.06;100.00
11440;BME280;5776;51.814;4.510;2022-12-07T04:58:46;101853.94;;;5.04;100.00
11440;BME280;5776;51.814;4.510;2022-12-07T05:01:14;101848.81;;;5.02;100.00
11440;BME280;5776;51.814;4.510;2022-12-07T05:03:40;101845.50;;;5.00;100.00
11440;BME280;5776;51.814;4.510;2022-12-07T05:06:06;101849.47;;;4.97;100.00
11440;BME280;5776;51.814;4.510;2022-12-07T05:08:33;101848.88;;;4.95;100.00
11440;BME280;5776;51.814;4.510;2022-12-07T05:11:00;101846.19;;;4.95;100.00
11440;BME280;5776;51.814;4.510;2022-12-07T05:13:27;101841.00;;;4.94;100.00
11440;BME280;5776;51.814;4.510;2022-12-07T05:15:53;101850.97;;;4.93;100.00
11440;BME280;5776;51.814;4.510;2022-12-07T05:18:18;101844.75;;;4.93;100.00
11440;BME280;5776;51.814;4.510;2022-12-07T05:20:45;101847.81;;;4.96;100.00
11440;BME280;5776;51.814;4.510;2022-12-07T05:23:11;101850.97;;;4.93;100.00
11440;BME280;5776;51.814;4.510;2022-12-07T05:25:37;101852.22;;;4.91;100.00
11440;BME280;5776;51.814;4.510;2022-12-07T05:28:04;101853.50;;;4.88;100.00
11440;BME280;5776;51.814;4.510;2022-12-07T05:30:31;101848.59;;;4.85;100.00
11440;BME280;5776;51.814;4.510;2022-12-07T05:32:57;101851.47;;;4.84;100.00
11440;BME280;5776;51.814;4.510;2022-12-07T05:35:23;101848.44;;;4.80;100.00
11440;BME280;5776;51.814;4.510;2022-12-07T05:37:49;101846.34;;;4.82;100.00
11440;BME280;5776;51.814;4.510;2022-12-07T05:40:16;101846.94;;;4.84;100.00
11440;BME280;5776;51.814;4.510;2022-12-07T05:42:42;101848.38;;;4.87;100.00
11440;BME280;5776;51.814;4.510;2022-12-07T05:45:08;101847.53;;;4.86;100.00
11440;BME280;5776;51.814;4.510;2022-12-07T05:47:35;101858.53;;;4.85;100.00
11440;BME280;5776;51.814;4.510;2022-12-07T05:50:01;101862.25;;;4.84;100.00
11440;BME280;5776;51.814;4.510;2022-12-07T05:52:27;101864.59;;;4.80;100.00
11440;BME280;5776;51.814;4.510;2022-12-07T05:54:53;101861.28;;;4.78;100.00
11440;BME280;5776;51.814;4.510;2022-12-07T05:57:19;101861.44;;;4.83;100.00
11440;BME280;5776;51.814;4.510;2022-12-07T05:59:45;101852.34;;;4.84;100.00
11440;BME280;5776;51.814;4.510;2022-12-07T06:02:13;101857.47;;;4.86;100.00
11440;BME280;5776;51.814;4.510;2022-12-07T06:04:42;101856.06;;;4.83;100.00
11440;BME280;5776;51.814;4.510;2022-12-07T06:07:10;101851.72;;;4.82;100.00
11440;BME280;5776;51.814;4.510;2022-12-07T06:09:37;101849.50;;;4.79;100.00
11440;BME280;5776;51.814;4.510;2022-12-07T06:12:03;101855.84;;;4.85;100.00
11440;BME280;5776;51.814;4.510;2022-12-07T06:14:48;101849.31;;;4.92;100.00
11440;BME280;5776;51.814;4.510;2022-12-07T06:17:15;101848.88;;;4.95;100.00
11440;BME280;5776;51.814;4.510;2022-12-07T06:19:41;101850.50;;;4.96;100.00
11440;BME280;5776;51.814;4.510;2022-12-07T06:22:07;101845.13;;;4.96;100.00
11440;BME280;5776;51.814;4.510;2022-12-07T06:24:35;101844.31;;;4.96;100.00
11440;BME280;5776;51.814;4.510;2022-12-07T06:27:01;101846.53;;;4.99;100.00
11440;BME280;5776;51.814;4.510;2022-12-07T06:29:27;101850.06;;;5.00;100.00
11440;BME280;5776;51.814;4.510;2022-12-07T06:31:53;101853.19;;;4.96;100.00
11440;BME280;5776;51.814;4.510;2022-12-07T06:34:20;101849.94;;;4.94;100.00
11440;BME280;5776;51.814;4.510;2022-12-07T06:36:48;101854.25;;;4.95;100.00
11440;BME280;5776;51.814;4.510;2022-12-07T06:39:18;101851.78;;;4.94;100.00
11440;BME280;5776;51.814;4.510;2022-12-07T06:41:44;101856.34;;;4.93;100.00
11440;BME280;5776;51.814;4.510;2022-12-07T06:44:10;101848.88;;;4.95;100.00
11440;BME280;5776;51.814;4.510;2022-12-07T06:46:36;101855.31;;;4.94;100.00
11440;BME280;5776;51.814;4.510;2022-12-07T06:49:04;101857.41;;;4.92;100.00
11440;BME280;5776;51.814;4.510;2022-12-07T06:51:30;101857.41;;;4.92;100.00
11440;BME280;5776;51.814;4.510;2022-12-07T06:53:56;101852.63;;;4.94;100.00
11440;BME280;5776;51.814;4.510;2022-12-07T06:56:21;101849.09;;;4.94;100.00
11440;BME280;5776;51.814;4.510;2022-12-07T06:58:48;101843.47;;;4.95;100.00
11440;BME280;5776;51.814;4.510;2022-12-07T07:01:17;101850.75;;;4.95;100.00
11440;BME280;5776;51.814;4.510;2022-12-07T07:03:44;101849.78;;;4.89;100.00
11440;BME280;5776;51.814;4.510;2022-12-07T07:06:12;101842.00;;;5.00;100.00
11440;BME280;5776;51.814;4.510;2022-12-07T07:08:38;101846.06;;;5.20;100.00
11440;BME280;5776;51.814;4.510;2022-12-07T07:11:04;101852.19;;;5.28;100.00
11440;BME280;5776;51.814;4.510;2022-12-07T07:13:31;101850.47;;;5.33;100.00
11440;BME280;5776;51.814;4.510;2022-12-07T07:15:56;101854.81;;;5.34;100.00
11440;BME280;5776;51.814;4.510;2022-12-07T07:18:22;101849.78;;;5.38;100.00
11440;BME280;5776;51.814;4.510;2022-12-07T07:20:50;101848.50;;;5.40;100.00
11440;BME280;5776;51.814;4.510;2022-12-07T07:23:16;101848.97;;;5.37;100.00
11440;BME280;5776;51.814;4.510;2022-12-07T07:25:42;101859.28;;;5.40;100.00
11440;BME280;5776;51.814;4.510;2022-12-07T07:28:08;101858.22;;;5.41;100.00
11440;BME280;5776;51.814;4.510;2022-12-07T07:30:34;101850.13;;;5.41;100.00
11440;BME280;5776;51.814;4.510;2022-12-07T07:33:01;101851.78;;;5.43;100.00
11440;BME280;5776;51.814;4.510;2022-12-07T07:35:29;101859.41;;;5.46;100.00
11440;BME280;5776;51.814;4.510;2022-12-07T07:37:55;101857.31;;;5.48;100.00
11440;BME280;5776;51.814;4.510;2022-12-07T07:40:21;101844.06;;;5.46;100.00
11440;BME280;5776;51.814;4.510;2022-12-07T07:42:49;101854.25;;;5.44;100.00
11440;BME280;5776;51.814;4.510;2022-12-07T07:45:15;101853.28;;;5.38;100.00
11440;BME280;5776;51.814;4.510;2022-12-07T07:47:41;101858.72;;;5.20;100.00
11440;BME280;5776;51.814;4.510;2022-12-07T07:50:07;101870.09;;;5.22;100.00
11440;BME280;5776;51.814;4.510;2022-12-07T07:52:34;101869.44;;;5.38;100.00
11440;BME280;5776;51.814;4.510;2022-12-07T07:54:59;101859.63;;;5.44;100.00
11440;BME280;5776;51.814;4.510;2022-12-07T07:57:25;101856.25;;;5.49;100.00
11440;BME280;5776;51.814;4.510;2022-12-07T07:59:51;101866.00;;;5.50;100.00
11440;BME280;5776;51.814;4.510;2022-12-07T08:02:18;101863.91;;;5.52;100.00
11440;BME280;5776;51.814;4.510;2022-12-07T08:04:45;101866.34;;;5.53;100.00
11440;BME280;5776;51.814;4.510;2022-12-07T08:07:12;101868.81;;;5.55;100.00
11440;BME280;5776;51.814;4.510;2022-12-07T08:09:38;101871.94;;;5.40;100.00
11440;BME280;5776;51.814;4.510;2022-12-07T08:12:04;101863.81;;;4.73;100.00
11440;BME280;5776;51.814;4.510;2022-12-07T08:14:31;101864.44;;;4.57;100.00
11440;BME280;5776;51.814;4.510;2022-12-07T08:16:57;101873.81;;;4.47;100.00
11440;BME280;5776;51.814;4.510;2022-12-07T08:19:23;101876.88;;;4.51;100.00
11440;BME280;5776;51.814;4.510;2022-12-07T08:21:49;101884.28;;;4.37;100.00
11440;BME280;5776;51.814;4.510;2022-12-07T08:24:15;101875.16;;;4.38;100.00
11440;BME280;5776;51.814;4.510;2022-12-07T08:26:42;101878.59;;;4.45;100.00
11440;BME280;5776;51.814;4.510;2022-12-07T08:29:08;101876.50;;;4.47;100.00
11440;BME280;5776;51.814;4.510;2022-12-07T08:31:34;101869.94;;;4.43;100.00
11440;BME280;5776;51.814;4.510;2022-12-07T08:34:00;101877.78;;;4.45;100.00
11440;BME280;5776;51.814;4.510;2022-12-07T08:36:26;101875.16;;;4.38;100.00
11440;BME280;5776;51.814;4.510;2022-12-07T08:38:52;101879.38;;;4.27;100.00
11440;BME280;5776;51.814;4.510;2022-12-07T08:41:18;101878.94;;;4.30;100.00
11440;BME280;5776;51.814;4.510;2022-12-07T08:43:44;101869.94;;;4.18;100.00
11440;BME280;5776;51.814;4.510;2022-12-07T08:48:40;101872.19;;;3.96;100.00
11440;BME280;5776;51.814;4.510;2022-12-07T08:51:07;101872.53;;;3.81;100.00
11440;BME280;5776;51.814;4.510;2022-12-07T08:53:33;101872.25;;;3.89;100.00
11440;BME280;5776;51.814;4.510;2022-12-07T08:56:00;101870.06;;;4.05;100.00
11440;BME280;5776;51.814;4.510;2022-12-07T08:58:26;101873.91;;;4.16;100.00
11440;BME280;5776;51.814;4.510;2022-12-07T09:00:52;101871.22;;;4.16;100.00
11440;BME280;5776;51.814;4.510;2022-12-07T09:03:17;101870.75;;;4.19;100.00
11440;BME280;5776;51.814;4.510;2022-12-07T09:05:44;101874.22;;;4.26;100.00
11440;BME280;5776;51.814;4.510;2022-12-07T09:08:10;101883.06;;;4.33;100.00
11440;BME280;5776;51.814;4.510;2022-12-07T09:10:36;101869.59;;;4.33;100.00
11440;BME280;5776;51.814;4.510;2022-12-07T09:13:02;101882.03;;;4.34;100.00
11440;BME280;5776;51.814;4.510;2022-12-07T09:15:29;101873.56;;;4.30;100.00
11440;BME280;5776;51.814;4.510;2022-12-07T09:17:55;101871.31;;;4.27;100.00
11440;BME280;5776;51.814;4.510;2022-12-07T09:20:20;101881.03;;;4.28;100.00
11440;BME280;5776;51.814;4.510;2022-12-07T09:22:46;101873.50;;;4.37;100.00
11440;BME280;5776;51.814;4.510;2022-12-07T09:25:12;101868.00;;;4.50;100.00
11440;BME280;5776;51.814;4.510;2022-12-07T09:27:38;101871.00;;;4.61;100.00
11440;BME280;5776;51.814;4.510;2022-12-07T09:30:05;101864.03;;;4.71;100.00
11440;BME280;5776;51.814;4.510;2022-12-07T09:32:31;101868.91;;;4.81;100.00
11440;BME280;5776;51.814;4.510;2022-12-07T09:34:57;101862.66;;;4.87;100.00
11440;BME280;5776;51.814;4.510;2022-12-07T09:37:23;101863.59;;;4.93;100.00
11440;BME280;5776;51.814;4.510;2022-12-07T09:39:49;101868.31;;;4.97;100.00
11440;BME280;5776;51.814;4.510;2022-12-07T09:42:35;101871.97;;;5.03;100.00
11440;BME280;5776;51.814;4.510;2022-12-07T09:45:04;101870.47;;;5.07;100.00
11440;BME280;5776;51.814;4.510;2022-12-07T09:47:31;101874.81;;;5.08;100.00
11440;BME280;5776;51.814;4.510;2022-12-07T09:50:27;101878.31;;;5.09;100.00
11440;BME280;5776;51.814;4.510;2022-12-07T09:52:55;101879.66;;;5.18;100.00
11440;BME280;5776;51.814;4.510;2022-12-07T09:55:29;101871.44;;;5.13;100.00
11440;BME280;5776;51.814;4.510;2022-12-07T09:57:57;101865.69;;;5.09;100.00
11440;BME280;5776;51.814;4.510;2022-12-07T10:00:24;101868.53;;;5.14;100.00
11440;BME280;5776;51.814;4.510;2022-12-07T10:05:43;101864.78;;;5.15;100.00
11440;BME280;5776;51.814;4.510;2022-12-07T10:08:14;101866.22;;;5.00;100.00
11440;BME280;5776;51.814;4.510;2022-12-07T10:10:44;101865.94;;;4.89;100.00
11440;BME280;5776;51.814;4.510;2022-12-07T10:13:13;101861.44;;;4.83;100.00
11440;BME280;5776;51.814;4.510;2022-12-07T10:15:46;101858.59;;;4.78;100.00
11440;BME280;5776;51.814;4.510;2022-12-07T10:18:27;101863.63;;;4.74;100.00
11440;BME280;5776;51.814;4.510;2022-12-07T10:23:58;101863.53;;;4.63;100.00
11440;BME280;5776;51.814;4.510;2022-12-07T10:31:58;101853.34;;;4.83;100.00
11440;BME280;5776;51.814;4.510;2022-12-07T10:34:36;101847.06;;;5.08;100.00
11440;BME280;5776;51.814;4.510;2022-12-07T10:37:16;101847.13;;;5.19;100.00
11440;BME280;5776;51.814;4.510;2022-12-07T10:39:53;101840.59;;;5.27;100.00
11440;BME280;5776;51.814;4.510;2022-12-07T10:42:25;101831.00;;;5.31;100.00
11440;BME280;5776;51.814;4.510;2022-12-07T10:53:21;101824.28;;;5.52;100.00
11440;BME280;5776;51.814;4.510;2022-12-07T10:56:05;101818.56;;;5.60;100.00
11440;BME280;5776;51.814;4.510;2022-12-07T11:01:25;101806.06;;;5.78;100.00
11440;BME280;5776;51.814;4.510;2022-12-07T11:17:29;101797.84;;;5.73;100.00
11440;BME280;5776;51.814;4.510;2022-12-07T11:20:23;101789.28;;;5.76;100.00
11440;BME280;5776;51.814;4.510;2022-12-07T11:23:18;101787.22;;;5.90;100.00
11440;BME280;5776;51.814;4.510;2022-12-07T11:26:06;101789.91;;;5.90;100.00
11440;BME280;5776;51.814;4.510;2022-12-07T11:41:49;101766.31;;;5.73;100.00
11440;BME280;5776;51.814;4.510;2022-12-07T11:44:39;101771.13;;;5.71;100.00
11440;BME280;5776;51.814;4.510;2022-12-07T11:50:14;101758.59;;;5.65;100.00
11440;BME280;5776;51.814;4.510;2022-12-07T11:52:55;101753.66;;;5.74;100.00
11440;BME280;5776;51.814;4.510;2022-12-07T12:03:42;101752.31;;;5.95;100.00
11440;BME280;5776;51.814;4.510;2022-12-07T12:06:09;101757.69;;;5.95;100.00
11440;BME280;5776;51.814;4.510;2022-12-07T12:09:48;101755.56;;;5.97;100.00
11440;BME280;5776;51.814;4.510;2022-12-07T12:14:48;101760.75;;;5.98;100.00
11440;BME280;5776;51.814;4.510;2022-12-07T12:22:43;101765.91;;;6.00;100.00
11440;BME280;5776;51.814;4.510;2022-12-07T12:33:35;101751.34;;;6.01;100.00
11440;BME280;5776;51.814;4.510;2022-12-07T12:46:59;101730.97;;;6.05;100.00
11440;BME280;5776;51.814;4.510;2022-12-07T12:51:56;101729.91;;;6.06;100.00
11440;BME280;5776;51.814;4.510;2022-12-07T12:54:28;101722.41;;;6.08;100.00
11440;BME280;5776;51.814;4.510;2022-12-07T13:15:52;101696.25;;;5.85;100.00
11440;BME280;5776;51.814;4.510;2022-12-07T13:23:47;101682.75;;;5.85;100.00
11440;BME280;5776;51.814;4.510;2022-12-07T13:26:23;101681.34;;;5.82;100.00
11440;BME280;5776;51.814;4.510;2022-12-07T13:29:14;101678.06;;;5.80;100.00
11440;BME280;5776;51.814;4.510;2022-12-07T13:31:55;101674.78;;;5.78;100.00
11440;BME280;5776;51.814;4.510;2022-12-07T13:34:34;101675.25;;;5.75;100.00
11440;BME280;5776;51.814;4.510;2022-12-07T13:37:04;101679.59;;;5.76;100.00
11440;BME280;5776;51.814;4.510;2022-12-07T13:39:35;101682.06;;;5.78;100.00
11440;BME280;5776;51.814;4.510;2022-12-07T13:42:22;101683.94;;;5.77;100.00
11440;BME280;5776;51.814;4.510;2022-12-07T13:44:49;101684.06;;;5.82;100.00
11440;BME280;5776;51.814;4.510;2022-12-07T13:47:35;101675.97;;;5.82;100.00
11440;BME280;5776;51.814;4.510;2022-12-07T13:52:58;101669.97;;;5.69;100.00
11440;BME280;5776;51.814;4.510;2022-12-07T13:55:26;101658.88;;;5.65;100.00
11440;BME280;5776;51.814;4.510;2022-12-07T13:57:54;101656.66;;;5.62;100.00
11440;BME280;5776;51.814;4.510;2022-12-07T14:00:23;101655.25;;;5.59;100.00
11440;BME280;5776;51.814;4.510;2022-12-07T14:05:31;101648.78;;;5.49;100.00
11440;BME280;5776;51.814;4.510;2022-12-07T14:08:06;101635.88;;;5.51;100.00
11440;BME280;5776;51.814;4.510;2022-12-07T14:13:38;101632.59;;;5.96;100.00
11440;BME280;5776;51.814;4.510;2022-12-07T14:16:24;101639.97;;;6.00;100.00
11440;BME280;5776;51.814;4.510;2022-12-07T14:18:51;101633.28;;;6.03;100.00
11440;BME280;5776;51.814;4.510;2022-12-07T14:21:22;101633.06;;;6.04;100.00
11440;BME280;5776;51.814;4.510;2022-12-07T14:26:38;101623.69;;;6.07;100.00
11440;BME280;5776;51.814;4.510;2022-12-07T14:31:51;101625.31;;;6.08;100.00
11440;BME280;5776;51.814;4.510;2022-12-07T14:34:23;101628.59;;;6.10;100.00
11440;BME280;5776;51.814;4.510;2022-12-07T14:36:49;101637.72;;;6.09;100.00
11440;BME280;5776;51.814;4.510;2022-12-07T14:39:15;101625.88;;;6.10;100.00
11440;BME280;5776;51.814;4.510;2022-12-07T14:41:41;101626.47;;;6.12;100.00
11440;BME280;5776;51.814;4.510;2022-12-07T14:44:17;101631.38;;;6.15;100.00
11440;BME280;5776;51.814;4.510;2022-12-07T14:46:43;101628.91;;;6.14;100.00
11440;BME280;5776;51.814;4.510;2022-12-07T14:49:08;101636.78;;;6.15;100.00
11440;BME280;5776;51.814;4.510;2022-12-07T14:51:38;101621.63;;;6.14;100.00
11440;BME280;5776;51.814;4.510;2022-12-07T14:54:06;101612.72;;;6.14;100.00
11440;BME280;5776;51.814;4.510;2022-12-07T14:56:37;101611.91;;;6.13;100.00
11440;BME280;5776;51.814;4.510;2022-12-07T14:59:03;101608.16;;;6.14;100.00
11440;BME280;5776;51.814;4.510;2022-12-07T15:01:29;101602.75;;;6.14;100.00
11440;BME280;5776;51.814;4.510;2022-12-07T15:03:54;101609.00;;;6.15;100.00
11440;BME280;5776;51.814;4.510;2022-12-07T15:06:20;101612.25;;;6.17;100.00
11440;BME280;5776;51.814;4.510;2022-12-07T15:08:46;101611.44;;;6.16;100.00
11440;BME280;5776;51.814;4.510;2022-12-07T15:11:13;101612.25;;;6.17;100.00
11440;BME280;5776;51.814;4.510;2022-12-07T15:13:39;101606.03;;;6.16;100.00
11440;BME280;5776;51.814;4.510;2022-12-07T15:16:24;101609.00;;;6.15;100.00
11440;BME280;5776;51.814;4.510;2022-12-07T15:18:50;101605.22;;;6.16;100.00
11440;BME280;5776;51.814;4.510;2022-12-07T15:21:16;101604.25;;;6.22;100.00
11440;BME280;5776;51.814;4.510;2022-12-07T15:23:42;101601.31;;;6.23;100.00
11440;BME280;5776;51.814;4.510;2022-12-07T15:26:10;101599.22;;;6.25;100.00
11440;BME280;5776;51.814;4.510;2022-12-07T15:28:36;101589.81;;;6.28;100.00
11440;BME280;5776;51.814;4.510;2022-12-07T15:31:02;101592.50;;;6.28;100.00
11440;BME280;5776;51.814;4.510;2022-12-07T15:33:28;101589.00;;;6.27;100.00
11440;BME280;5776;51.814;4.510;2022-12-07T15:35:54;101591.72;;;6.27;100.00
11440;BME280;5776;51.814;4.510;2022-12-07T15:38:20;101590.41;;;6.30;100.00
11440;BME280;5776;51.814;4.510;2022-12-07T15:40:48;101589.59;;;6.30;100.00
11440;BME280;5776;51.814;4.510;2022-12-07T15:43:14;101573.97;;;6.32;100.00
11440;BME280;5776;51.814;4.510;2022-12-07T15:45:59;101578.81;;;6.30;100.00
11440;BME280;5776;51.814;4.510;2022-12-07T15:48:25;101570.72;;;6.30;100.00